Latest Weather Observations for Kurnell

IDN60801

Issued at 3:02 pm EDT Thursday 8 December 2016 (issued every 30 minutes, with the page automatically refreshed every 10 minutes)

About weather observations | Map of weather stations | Latest weather observations for NSW | Other Formats
Station Details ID: 066043 Name: KURNELL AWS Lat: -34.00 Lon: 151.21 Height: 4.0 m
Data from the previous 72 hours. | See also: Recent months for locations in New South Wales
Date/Time
EDT
Temp
°C
App
Temp
°C
Dew
Point
°C
Rel
Hum
%
Delta-T
°C
Wind Press
QNH
hPa
Press
MSL
hPa
Rain since
9am
mm
Dir  Spd
km/h
Gust
km/h
Spd
kts
Gust
kts
08/03:00pm - - - - - NE 46 54 25 29 - - -
08/02:30pm - - - - - NE 48 56 26 30 - - -
08/02:00pm - - - - - NE 46 57 25 31 - - -
08/01:30pm - - - - - NE 46 54 25 29 - - -
08/01:00pm - - - - - NE 39 48 21 26 - - -
08/12:30pm - - - - - NE 39 44 21 24 - - -
08/12:00pm - - - - - NE 37 41 20 22 - - -
08/11:30am - - - - - NE 32 35 17 19 - - -
08/11:00am - - - - - NE 33 39 18 21 - - -
08/10:30am - - - - - NE 30 33 16 18 - - -
08/10:00am - - - - - ENE 26 30 14 16 - - -
08/09:30am - - - - - NE 22 28 12 15 - - -
08/09:00am - - - - - NNE 13 19 7 10 - - -
08/08:30am - - - - - NNE 15 19 8 10 - - -
08/08:00am - - - - - NNE 17 20 9 11 - - -
08/07:30am - - - - - NNE 22 28 12 15 - - -
08/07:00am - - - - - N 20 28 11 15 - - -
08/06:30am - - - - - N 17 24 9 13 - - -
08/06:00am - - - - - NNW 19 22 10 12 - - -
08/05:30am - - - - - N 17 26 9 14 - - -
08/05:00am - - - - - N 28 37 15 20 - - -
08/04:30am - - - - - NNE 24 30 13 16 - - -
08/04:00am - - - - - N 20 28 11 15 - - -
08/03:30am - - - - - N 22 28 12 15 - - -
08/03:00am - - - - - NNE 22 30 12 16 - - -
08/02:30am - - - - - NNE 26 33 14 18 - - -
08/02:00am - - - - - NNE 26 33 14 18 - - -
08/01:30am - - - - - NNE 28 35 15 19 - - -
08/01:00am - - - - - NNE 28 35 15 19 - - -
08/12:30am - - - - - NNE 28 35 15 19 - - -
08/12:00am - - - - - NE 33 41 18 22 - - -
 
Date/Time
EDT
Temp
°C
App
Temp
°C
Dew
Point
°C
Rel
Hum
%
Delta-T
°C
Wind Press
QNH
hPa
Press
MSL
hPa
Rain since
9am
mm
Dir  Spd
km/h
Gust
km/h
Spd
kts
Gust
kts
07/11:30pm - - - - - NE 32 35 17 19 - - -
07/11:00pm - - - - - NE 30 35 16 19 - - -
07/10:30pm - - - - - NE 30 35 16 19 - - -
07/10:00pm - - - - - NE 26 32 14 17 - - -
07/09:30pm - - - - - NE 28 32 15 17 - - -
07/09:00pm - - - - - NE 26 32 14 17 - - -
07/08:30pm - - - - - NE 26 35 14 19 - - -
07/08:00pm - - - - - NE 28 35 15 19 - - -
07/07:30pm - - - - - NE 28 35 15 19 - - -
07/07:00pm - - - - - ENE 28 33 15 18 - - -
07/06:30pm - - - - - ENE 28 33 15 18 - - -
07/06:00pm - - - - - ENE 26 32 14 17 - - -
07/05:30pm - - - - - ENE 26 32 14 17 - - -
07/05:00pm - - - - - ENE 22 32 12 17 - - -
07/04:30pm - - - - - ENE 22 30 12 16 - - -
07/04:00pm - - - - - E 20 28 11 15 - - -
07/03:30pm - - - - - E 20 28 11 15 - - -
07/03:00pm - - - - - E 20 30 11 16 - - -
07/02:30pm - - - - - E 22 28 12 15 - - -
07/02:00pm - - - - - E 20 26 11 14 - - -
07/01:30pm - - - - - ESE 19 28 10 15 - - -
07/01:00pm - - - - - ESE 19 26 10 14 - - -
07/12:30pm - - - - - ESE 20 28 11 15 - - -
07/12:00pm - - - - - SE 19 26 10 14 - - -
07/11:30am - - - - - SE 20 26 11 14 - - -
07/11:00am - - - - - ESE 19 26 10 14 - - -
07/10:30am - - - - - ESE 17 22 9 12 - - -
07/10:00am - - - - - SE 20 26 11 14 - - -
07/09:30am - - - - - SE 19 28 10 15 - - -
07/09:00am - - - - - SE 19 26 10 14 - - -
07/08:30am - - - - - SSE 19 28 10 15 - - -
07/08:00am - - - - - SSE 17 26 9 14 - - -
07/07:30am - - - - - SSE 22 28 12 15 - - -
07/07:00am - - - - - SE 17 22 9 12 - - -
07/06:30am - - - - - SE 19 24 10 13 - - -
07/06:00am - - - - - SE 20 30 11 16 - - -
07/05:30am - - - - - SE 17 20 9 11 - - -
07/05:00am - - - - - SE 7 9 4 5 - - -
07/04:30am - - - - - SSE 11 13 6 7 - - -
07/04:00am - - - - - SE 9 11 5 6 - - -
07/03:30am - - - - - SSE 9 13 5 7 - - -
07/03:00am - - - - - SSE 15 22 8 12 - - -
07/02:30am - - - - - S 17 28 9 15 - - -
07/02:00am - - - - - SW 24 32 13 17 - - -
07/01:30am - - - - - SW 24 32 13 17 - - -
07/01:00am - - - - - SW 26 32 14 17 - - -
07/12:30am - - - - - SSW 20 28 11 15 - - -
07/12:00am - - - - - SW 20 28 11 15 - - -
 
Date/Time
EDT
Temp
°C
App
Temp
°C
Dew
Point
°C
Rel
Hum
%
Delta-T
°C
Wind Press
QNH
hPa
Press
MSL
hPa
Rain since
9am
mm
Dir  Spd
km/h
Gust
km/h
Spd
kts
Gust
kts
06/11:30pm - - - - - SSW 24 32 13 17 - - -
06/11:00pm - - - - - SSW 26 33 14 18 - - -
06/10:30pm - - - - - SW 24 35 13 19 - - -
06/10:00pm - - - - - W 22 28 12 15 - - -
06/09:30pm - - - - - WNW 22 28 12 15 - - -
06/09:00pm - - - - - WNW 24 33 13 18 - - -
06/08:30pm - - - - - NW 20 24 11 13 - - -
06/08:00pm - - - - - NW 19 22 10 12 - - -
06/07:30pm - - - - - NW 20 26 11 14 - - -
06/07:00pm - - - - - NNW 9 15 5 8 - - -
06/06:30pm - - - - - CALM 0 4 0 2 - - -
06/06:00pm - - - - - CALM 0 0 0 0 - - -
06/05:30pm - - - - - CALM 0 0 0 0 - - -
06/05:00pm - - - - - SW 2 7 1 4 - - -
06/04:30pm - - - - - ESE 4 7 2 4 - - -
06/04:00pm - - - - - CALM 0 7 0 4 - - -
06/03:30pm - - - - - E 2 7 1 4 - - -
06/03:00pm - - - - - ENE 9 9 5 5 - - -
06/02:30pm - - - - - NE 11 15 6 8 - - -
06/02:00pm - - - - - S 2 7 1 4 - - -
06/01:30pm - - - - - S 11 15 6 8 - - -
06/01:00pm - - - - - S 11 15 6 8 - - -
06/12:30pm - - - - - S 11 17 6 9 - - -
06/12:00pm - - - - - S 15 20 8 11 - - -
06/11:30am - - - - - S 17 22 9 12 - - -
06/11:00am - - - - - SSW 20 26 11 14 - - -
06/10:30am - - - - - S 17 26 9 14 - - -
06/10:00am - - - - - S 17 22 9 12 - - -
06/09:30am - - - - - SSW 17 22 9 12 - - -
06/09:00am - - - - - SW 17 20 9 11 - - -
06/08:30am - - - - - SW 19 26 10 14 - - -
06/08:00am - - - - - SSW 22 30 12 16 - - -
06/07:30am - - - - - SSW 26 37 14 20 - - -
06/07:00am - - - - - SSW 24 33 13 18 - - -
06/06:30am - - - - - SSW 24 30 13 16 - - -
06/06:00am - - - - - SSW 22 30 12 16 - - -
06/05:30am - - - - - SSW 22 30 12 16 - - -
06/05:00am - - - - - SSW 20 28 11 15 - - -
06/04:30am - - - - - SSW 15 19 8 10 - - -
06/04:00am - - - - - S 15 20 8 11 - - -
06/03:30am - - - - - SW 11 13 6 7 - - -
06/03:00am - - - - - SW 13 17 7 9 - - -
06/02:30am - - - - - SSW 13 17 7 9 - - -
06/02:00am - - - - - SW 17 22 9 12 - - -
06/01:30am - - - - - SSW 17 20 9 11 - - -
06/01:00am - - - - - SSW 19 26 10 14 - - -
06/12:30am - - - - - SSW 17 26 9 14 - - -
06/12:00am - - - - - SSW 30 39 16 21 - - -
 
Date/Time
EDT
Temp
°C
App
Temp
°C
Dew
Point
°C
Rel
Hum
%
Delta-T
°C
Wind Press
QNH
hPa
Press
MSL
hPa
Rain since
9am
mm
Dir  Spd
km/h
Gust
km/h
Spd
kts
Gust
kts
05/11:33pm - - - - - SSW 37 56 20 30 - - -
05/11:30pm - - - - - SSW 39 56 21 30 - - -
05/11:00pm - - - - - SSW 43 61 23 33 - - -
05/10:59pm - - - - - SSW 43 61 23 33 - - -
05/10:30pm - - - - - SSW 48 61 26 33 - - -
05/10:09pm - - - - - SSW 43 65 23 35 - - -
05/10:00pm - - - - - SSW 46 61 25 33 - - -
05/09:47pm - - - - - SSW 44 67 24 36 - - -
05/09:30pm - - - - - SSW 44 59 24 32 - - -
05/09:02pm - - - - - SW 28 56 15 30 - - -
05/09:00pm - - - - - WSW 22 48 12 26 - - -
05/08:58pm - - - - - W 19 48 10 26 - - -
05/08:30pm - - - - - NNW 9 11 5 6 - - -
05/08:00pm - - - - - N 13 17 7 9 - - -
05/07:30pm - - - - - NNE 15 20 8 11 - - -
05/07:00pm - - - - - NE 22 28 12 15 - - -
05/06:30pm - - - - - ENE 20 24 11 13 - - -
05/06:00pm - - - - - ENE 20 28 11 15 - - -
05/05:30pm - - - - - S 20 37 11 20 - - -
05/05:00pm - - - - - NW 24 43 13 23 - - -
05/04:51pm - - - - - NNW 17 43 9 23 - - -
05/04:30pm - - - - - NE 15 33 8 18 - - -
05/04:00pm - - - - - E 11 19 6 10 - - -
05/03:30pm - - - - - NNE 28 56 15 30 - - -
05/03:21pm - - - - - NNE 24 56 13 30 - - -

Other Formats:

Comma delimited format used in spreadsheet applications
http://www.bom.gov.au/fwo/IDN60801/IDN60801.95756.axf

JavaScript Object Notation format (JSON) in row-major order
http://www.bom.gov.au/fwo/IDN60801/IDN60801.95756.json